• Join FlightAware (Why Join?)
  • Login
  • US Flag 
10:13AM EDT


 

Airport Tracker/Info


-or-


 

Live Flight TrackerFlight Track Log ✈ N724AE ✈ 13-Apr-2013 ✈ KTXK - KDFW

Flight Track Log - Related Links

Times and Time Zones

All times are in EDT time to prevent confusion due to time zone crossing. See the N724AE flight status page for this flight to view local times or setup timezone preferences in your user account.

Time Position Orientation Groundspeed Altitude Reporting Facility
EDT Latitude Longitude Course Direction KTS MPH feet Rate Location/Type
02:40PM 33.4836 -93.9792 294° West 434 499 2,100  Level Fort Worth Center
02:41PM 33.5086 -94.0503 293° West 268 308 5,200 3,480 Climbing Fort Worth Center
02:42PM 33.5447 -94.2341 292° West  Level FlightAware Approximate
02:42PM 33.5086 -94.1350 270° West 211 243 9,100  Level Fort Worth Center
02:43PM 33.5716 -94.3206 296° West  Level FlightAware Approximate
02:43PM 33.5111 -94.2319 272° West 233 268 10,800  Level Fort Worth Center
02:44PM 33.6053 -94.4050 296° West  Level FlightAware Approximate
02:44PM 33.5100 -94.3517 269° West 307 353 12,500  Level Fort Worth Center
02:45PM 33.6374 -94.4903 294° West  Level FlightAware Approximate
02:45PM 33.5131 -94.4736 272° West 348 400 15,000  Level Fort Worth Center
02:46PM 33.5156 -94.5881 272° West 355 409 17,900 2,100 Climbing Fort Worth Center
02:47PM 33.5181 -94.7078 271° West 355 409 19,200 1,020 Climbing Fort Worth Center
02:48PM 33.5186 -94.8322 270° West 368 423 20,000 360 Climbing Fort Worth Center
02:49PM 33.5214 -94.9667 271° West 383 441 20,000  Level Fort Worth Center
02:50PM 33.5217 -95.0961 270° West 395 455 20,000  Level Fort Worth Center
02:51PM 33.5264 -95.2308 272° West 395 455 20,000  Level Fort Worth Center
02:52PM 33.5139 -95.3606 263° West 403 464 20,000  Level Fort Worth Center
02:53PM 33.4950 -95.4906 260° West 403 464 20,000  Level Fort Worth Center
02:54PM 33.4783 -95.6303 262° West 403 464 20,000 -480 Level Fort Worth Center
02:56PM 33.4400 -95.8850 260° West 388 447 18,600 -1,260 Descending Fort Worth Center
02:57PM 33.4244 -95.9997 261° West 372 428 16,300 -2,400 Descending Fort Worth Center
02:58PM 33.4069 -96.1119 259° West 353 406 13,800 -2,520 Descending Fort Worth Center
02:59PM 33.3933 -96.2167 261° West 334 384 11,300 -1,440 Descending Fort Worth Center
03:00PM 33.3778 -96.3264 260° West 334 384 11,000 -300 Descending Fort Worth Center
03:01PM 33.3514 -96.4186 251° West 315 362 10,800 -600 Descending Fort Worth Center
03:02PM 33.3122 -96.5036 241° Southwest 293 337 9,800 -1,080 Descending Fort Worth Center
03:03PM 33.2689 -96.5836 237° Southwest 293 337 8,700 -1,200 Descending Fort Worth Center
03:04PM 33.2297 -96.6608 239° Southwest 288 331 7,500 -1,080 Descending Fort Worth Center
03:05PM 33.1906 -96.7358 238° Southwest 282 325 6,600 -1,020 Descending Fort Worth Center
03:07PM 33.1167 -96.8833 239° Southwest 258 297 4,400 -1,020 Descending Dallas / Fort Worth TRACON
03:08PM 33.0667 -96.9500 228° Southwest 235 270 3,400 -1,020 Descending Dallas / Fort Worth TRACON